Time;durP1;ratioP1;P1;durP2;ratioP2;P2;SDS_P1;SDS_P2;PMS_P1;PMS_P2;Temp;Humidity;BMP_temperature;BMP_pressure;BME280_temperature;BME280_humidity;BME280_pressure;Samples;Min_cycle;Max_cycle;Signal;HPM_P1;HPM_P2
2021/04/09 00:00:35;;;;;;;1.80;1.70;;;19.70;55.40;;;;;;4997118;28;20045;-41
2021/04/09 00:03:00;;;;;;;3.30;1.98;;;19.70;55.30;;;;;;4998258;28;20063;-41
2021/04/09 00:05:26;;;;;;;1.80;1.70;;;19.70;55.30;;;;;;5007666;28;20116;-39
2021/04/09 00:07:52;;;;;;;1.90;1.80;;;19.70;55.20;;;;;;4992770;28;20026;-39
2021/04/09 00:10:25;;;;;;;2.00;1.90;;;19.70;55.20;;;;;;4996033;28;20432;-41
2021/04/09 00:12:50;;;;;;;2.28;1.98;;;19.70;55.20;;;;;;4995768;28;20129;-40
2021/04/09 00:15:16;;;;;;;2.10;1.80;;;19.70;55.20;;;;;;4995740;28;20109;-39
2021/04/09 00:17:42;;;;;;;1.83;1.73;;;19.70;55.20;;;;;;4997621;28;20037;-41
2021/04/09 00:20:10;;;;;;;2.03;1.90;;;19.70;55.10;;;;;;5006505;28;20030;-43
2021/04/09 00:22:35;;;;;;;1.90;1.80;;;19.70;55.10;;;;;;4995569;28;20038;-36
2021/04/09 00:25:01;;;;;;;2.00;1.90;;;19.70;55.10;;;;;;4996419;28;20034;-43
2021/04/09 00:27:26;;;;;;;2.85;2.60;;;19.70;55.20;;;;;;4996324;28;20031;-43
2021/04/09 00:29:52;;;;;;;1.90;1.80;;;19.70;55.20;;;;;;4998926;28;20523;-40
2021/04/09 00:32:17;;;;;;;3.33;1.85;;;19.70;55.10;;;;;;4992095;28;20030;-40
2021/04/09 00:34:43;;;;;;;1.80;1.70;;;19.60;55.20;;;;;;5000227;28;20056;-40
2021/04/09 00:37:09;;;;;;;2.00;1.90;;;19.60;55.10;;;;;;4996493;28;20405;-40
2021/04/09 00:39:34;;;;;;;1.80;1.70;;;19.60;55.10;;;;;;4995350;28;20117;-39
2021/04/09 00:42:00;;;;;;;2.13;1.98;;;19.70;55.10;;;;;;4996021;28;20034;-41
2021/04/09 00:44:25;;;;;;;4.10;1.83;;;19.60;55.10;;;;;;4994536;28;20515;-41
2021/04/09 00:46:51;;;;;;;2.50;2.30;;;19.60;55.10;;;;;;4993059;28;20165;-40
2021/04/09 00:49:16;;;;;;;1.88;1.77;;;19.60;55.10;;;;;;5004456;28;20034;-42
2021/04/09 00:51:42;;;;;;;1.90;1.80;;;19.60;55.00;;;;;;4997191;28;20031;-40
2021/04/09 00:54:08;;;;;;;1.50;1.40;;;19.60;55.10;;;;;;4997529;28;20456;-41
2021/04/09 00:56:34;;;;;;;1.58;1.48;;;19.60;55.10;;;;;;4993949;28;20034;-40
2021/04/09 00:59:00;;;;;;;1.63;1.52;;;19.60;55.00;;;;;;4991229;28;20408;-42
2021/04/09 01:01:26;;;;;;;1.60;1.50;;;19.60;55.10;;;;;;5004695;28;20033;-41
2021/04/09 01:03:52;;;;;;;1.55;1.45;;;19.60;55.10;;;;;;4995939;28;20042;-40
2021/04/09 01:06:19;;;;;;;2.00;1.90;;;19.60;55.00;;;;;;4995585;28;20032;-39
2021/04/09 01:08:45;;;;;;;1.98;1.60;;;19.60;55.00;;;;;;4995442;28;20520;-39
2021/04/09 01:11:10;;;;;;;1.80;1.70;;;19.60;55.00;;;;;;4992087;28;20030;-41
2021/04/09 01:13:36;;;;;;;1.88;1.73;;;19.60;55.60;;;;;;5003824;28;20053;-42
2021/04/09 01:16:02;;;;;;;3.03;1.73;;;19.60;55.00;;;;;;4998901;28;20393;-39
2021/04/09 01:18:36;;;;;;;2.13;1.75;;;19.50;55.00;;;;;;5014482;28;20109;-41
2021/04/09 01:21:21;;;;;;;;;;;19.50;54.90;;;;;;4999918;28;20108;-40
2021/04/09 01:24:09;;;;;;;2.35;1.75;;;19.60;54.90;;;;;;5008406;28;19961;-40
2021/04/09 01:26:53;;;;;;;1.67;1.58;;;19.50;54.80;;;;;;4999273;28;20034;-40
2021/04/09 01:29:51;;;;;;;;;;;19.50;54.90;;;;;;5010060;28;20026;-40
2021/04/09 01:32:17;;;;;;;2.13;1.90;;;19.50;54.90;;;;;;4955477;28;19918;-39
2021/04/09 01:34:48;;;;;;;1.88;1.77;;;19.50;55.00;;;;;;4971496;28;20194;-41
2021/04/09 01:37:16;;;;;;;2.00;1.90;;;19.50;55.00;;;;;;4989554;28;20022;-43
2021/04/09 01:39:51;;;;;;;1.90;1.80;;;19.50;55.60;;;;;;4967859;28;20035;-42
2021/04/09 01:42:17;;;;;;;1.90;1.80;;;19.50;55.00;;;;;;4970813;28;20035;-42
2021/04/09 01:44:43;;;;;;;1.88;1.77;;;19.50;54.90;;;;;;4986184;28;20066;-40
2021/04/09 01:47:09;;;;;;;2.40;1.80;;;19.50;54.90;;;;;;4969554;28;20023;-41
2021/04/09 01:49:34;;;;;;;1.88;1.77;;;19.50;54.80;;;;;;4988155;28;20042;-37
2021/04/09 01:52:00;;;;;;;2.00;1.90;;;19.50;54.80;;;;;;4941616;29;20122;-42
2021/04/09 01:54:26;;;;;;;2.42;1.80;;;19.40;54.80;;;;;;4980869;28;20066;-41
2021/04/09 01:56:52;;;;;;;1.85;1.75;;;19.40;54.80;;;;;;4968594;28;20042;-40
2021/04/09 01:59:17;;;;;;;1.73;1.63;;;19.40;54.80;;;;;;4954375;28;20127;-40
2021/04/09 02:01:47;;;;;;;1.75;1.65;;;19.40;54.80;;;;;;4971225;28;20034;-41
2021/04/09 02:04:12;;;;;;;1.92;1.83;;;19.40;54.70;;;;;;4987873;28;20046;-38
2021/04/09 02:06:39;;;;;;;1.90;1.80;;;19.40;54.80;;;;;;4934252;28;20068;-39
2021/04/09 02:09:05;;;;;;;1.92;1.80;;;19.50;55.20;;;;;;5007726;28;20050;-42
2021/04/09 02:11:35;;;;;;;1.60;1.50;;;19.50;54.60;;;;;;4999588;28;20072;-40
2021/04/09 02:14:04;;;;;;;1.83;1.73;;;19.40;54.90;;;;;;4995124;28;20046;-40
2021/04/09 02:16:29;;;;;;;1.88;1.77;;;19.40;54.60;;;;;;4997901;28;20092;-40
2021/04/09 02:18:59;;;;;;;2.10;2.00;;;19.40;54.60;;;;;;4999035;28;20469;-43
2021/04/09 02:21:25;;;;;;;1.95;1.70;;;19.40;54.70;;;;;;5001266;28;20029;-38
2021/04/09 02:23:50;;;;;;;2.03;1.77;;;19.40;54.70;;;;;;5006645;28;20038;-41
2021/04/09 02:26:17;;;;;;;1.88;1.77;;;19.40;54.70;;;;;;5008933;28;20492;-40
2021/04/09 02:28:42;;;;;;;1.90;1.80;;;19.40;54.70;;;;;;4994889;28;20040;-41
2021/04/09 02:31:11;;;;;;;2.00;1.90;;;19.40;54.60;;;;;;4997776;28;20026;-41
2021/04/09 02:33:37;;;;;;;2.17;1.98;;;19.40;54.80;;;;;;4994900;28;20040;-40
2021/04/09 02:36:20;;;;;;;2.00;1.80;;;19.40;55.30;;;;;;4998784;28;20021;-40
2021/04/09 02:38:54;;;;;;;1.97;1.50;;;19.30;54.60;;;;;;5006056;28;20558;-40
2021/04/09 02:41:20;;;;;;;1.90;1.80;;;19.30;54.80;;;;;;5006817;28;20018;-42
2021/04/09 02:43:46;;;;;;;2.17;1.98;;;19.40;54.80;;;;;;5007523;28;20124;-42
2021/04/09 02:46:54;;;;;;;1.85;1.75;;;19.50;54.50;;;;;;5009468;28;20097;-41
2021/04/09 02:49:38;;;;;;;1.70;1.60;;;19.40;54.50;;;;;;5010297;28;20029;-42
2021/04/09 02:52:04;;;;;;;2.47;2.00;;;19.40;54.70;;;;;;5010320;28;20064;-39
2021/04/09 02:54:30;;;;;;;1.73;1.63;;;19.30;54.70;;;;;;5009312;28;20077;-46
2021/04/09 02:56:55;;;;;;;2.20;2.00;;;19.30;54.80;;;;;;5009041;28;20061;-42
2021/04/09 02:59:21;;;;;;;1.52;1.42;;;19.30;54.90;;;;;;5007977;28;20026;-44
2021/04/09 03:01:46;;;;;;;1.98;1.85;;;19.30;54.80;;;;;;5005831;28;20025;-43
2021/04/09 03:04:12;;;;;;;1.75;1.63;;;19.30;54.80;;;;;;5007686;28;20444;-38
2021/04/09 03:06:40;;;;;;;1.70;1.60;;;19.30;55.00;;;;;;5008080;28;20040;-40
2021/04/09 03:09:05;;;;;;;1.90;1.80;;;19.30;55.30;;;;;;5004636;28;20615;-42
2021/04/09 03:11:32;;;;;;;1.85;1.75;;;19.30;55.70;;;;;;5005881;28;20021;-42
2021/04/09 03:13:58;;;;;;;1.83;1.73;;;19.30;55.80;;;;;;5010421;28;20532;-43
2021/04/09 03:16:25;;;;;;;1.65;1.55;;;19.30;56.20;;;;;;5009603;28;20093;-44
2021/04/09 03:18:50;;;;;;;1.73;1.63;;;19.20;56.20;;;;;;5008488;28;20047;-39
2021/04/09 03:21:16;;;;;;;2.40;2.20;;;19.20;56.10;;;;;;5010514;28;20018;-45
2021/04/09 03:23:41;;;;;;;1.73;1.63;;;19.20;56.90;;;;;;5009940;28;20050;-42
2021/04/09 03:26:07;;;;;;;1.70;1.60;;;19.20;56.20;;;;;;5008585;28;20849;-44
2021/04/09 03:28:32;;;;;;;2.25;2.05;;;19.20;56.30;;;;;;5011786;28;20034;-42
2021/04/09 03:30:58;;;;;;;1.90;1.80;;;19.20;57.00;;;;;;5009397;28;20026;-44
2021/04/09 03:33:26;;;;;;;2.92;2.03;;;19.10;56.30;;;;;;5009939;28;20050;-40
2021/04/09 03:35:52;;;;;;;2.03;1.92;;;19.10;56.20;;;;;;5006616;28;20514;-42
2021/04/09 03:38:17;;;;;;;1.67;1.58;;;19.10;56.20;;;;;;5009842;28;20061;-42
2021/04/09 03:40:43;;;;;;;1.90;1.80;;;19.10;56.80;;;;;;5003579;28;20026;-44
2021/04/09 03:43:12;;;;;;;1.90;1.80;;;19.10;56.90;;;;;;5008902;28;20103;-42
2021/04/09 03:45:38;;;;;;;1.60;1.50;;;19.10;56.20;;;;;;5008394;28;20495;-44
2021/04/09 03:48:04;;;;;;;1.73;1.60;;;19.10;56.20;;;;;;5008386;28;20033;-43
2021/04/09 03:50:29;;;;;;;1.52;1.42;;;19.10;56.10;;;;;;5008177;28;20033;-44
2021/04/09 03:52:55;;;;;;;1.63;1.52;;;19.10;56.10;;;;;;5005573;28;20514;-41
2021/04/09 03:55:20;;;;;;;1.67;1.58;;;19.10;56.20;;;;;;5010489;28;20030;-44
2021/04/09 03:57:46;;;;;;;1.75;1.65;;;19.10;56.20;;;;;;5009175;28;20043;-42
2021/04/09 04:00:12;;;;;;;1.45;1.35;;;19.10;55.80;;;;;;5008397;28;20591;-44
2021/04/09 04:02:38;;;;;;;1.88;1.77;;;19.10;56.10;;;;;;5006905;28;20435;-42
2021/04/09 04:05:05;;;;;;;1.60;1.50;;;19.10;56.00;;;;;;5008064;28;20045;-47
2021/04/09 04:07:30;;;;;;;1.83;1.73;;;19.10;56.00;;;;;;5007001;28;20022;-41
2021/04/09 04:09:56;;;;;;;1.77;1.67;;;19.10;56.10;;;;;;5010012;28;20087;-43
2021/04/09 04:12:21;;;;;;;1.40;1.30;;;19.10;55.80;;;;;;5005342;28;20116;-45
2021/04/09 04:14:47;;;;;;;1.70;1.60;;;19.10;56.00;;;;;;5007929;28;20717;-42
2021/04/09 04:17:12;;;;;;;1.45;1.35;;;19.10;56.00;;;;;;5008788;28;20713;-42
2021/04/09 04:19:38;;;;;;;1.63;1.52;;;19.10;55.80;;;;;;5007506;28;20034;-44
2021/04/09 04:22:03;;;;;;;1.63;1.52;;;19.10;55.90;;;;;;5005971;28;20029;-44
2021/04/09 04:24:29;;;;;;;1.60;1.50;;;19.10;56.00;;;;;;5008110;28;20038;-42
2021/04/09 04:26:55;;;;;;;1.80;1.70;;;19.00;55.90;;;;;;5009202;28;20026;-44
2021/04/09 04:29:20;;;;;;;1.70;1.60;;;19.10;55.90;;;;;;5008596;28;20022;-46
2021/04/09 04:31:46;;;;;;;1.60;1.50;;;19.10;55.90;;;;;;5009092;28;20377;-44
2021/04/09 04:34:11;;;;;;;1.73;1.63;;;19.10;55.80;;;;;;5011077;28;20056;-43
2021/04/09 04:36:37;;;;;;;1.60;1.50;;;19.00;55.80;;;;;;5009397;28;20022;-43
2021/04/09 04:39:03;;;;;;;1.50;1.40;;;19.00;55.90;;;;;;5008711;28;20040;-43
2021/04/09 04:41:29;;;;;;;1.10;1.10;;;19.10;55.90;;;;;;5008228;28;20022;-44
2021/04/09 04:43:56;;;;;;;1.40;1.30;;;19.10;56.40;;;;;;5008713;28;20524;-45
2021/04/09 04:46:21;;;;;;;1.50;1.40;;;19.10;55.70;;;;;;5011462;28;20069;-44
2021/04/09 04:48:47;;;;;;;1.88;1.77;;;19.10;55.70;;;;;;5007739;28;20025;-39
2021/04/09 04:51:12;;;;;;;2.15;1.75;;;19.10;55.70;;;;;;5008737;28;20515;-42
2021/04/09 04:53:38;;;;;;;1.40;1.30;;;19.10;55.70;;;;;;5008778;28;20084;-41
2021/04/09 04:56:04;;;;;;;1.65;1.55;;;19.10;55.70;;;;;;5008479;28;20038;-42
2021/04/09 04:58:29;;;;;;;1.60;1.50;;;19.10;55.60;;;;;;5011527;28;20030;-41
2021/04/09 05:00:55;;;;;;;1.85;1.65;;;19.10;56.30;;;;;;5008637;28;20037;-44
2021/04/09 05:03:20;;;;;;;1.67;1.58;;;19.10;55.60;;;;;;5007793;28;20034;-41
2021/04/09 05:05:46;;;;;;;1.58;1.48;;;19.10;55.50;;;;;;5000468;28;20030;-40
2021/04/09 05:08:12;;;;;;;1.55;1.45;;;19.10;55.50;;;;;;5005536;28;20027;-42
2021/04/09 05:10:37;;;;;;;1.50;1.40;;;19.10;55.50;;;;;;5007631;28;20136;-43
2021/04/09 05:13:03;;;;;;;1.55;1.30;;;19.10;55.50;;;;;;5009361;28;20516;-42
2021/04/09 05:15:29;;;;;;;1.77;1.67;;;19.10;55.60;;;;;;5006119;28;20046;-43
2021/04/09 05:17:54;;;;;;;2.88;1.27;;;19.10;56.20;;;;;;5008164;28;20026;-43
2021/04/09 05:20:20;;;;;;;1.70;1.60;;;19.10;55.60;;;;;;5005429;28;20034;-40
2021/04/09 05:22:46;;;;;;;2.10;1.90;;;19.10;55.40;;;;;;5002397;28;20026;-37
2021/04/09 05:25:11;;;;;;;1.65;1.55;;;19.10;55.50;;;;;;5007967;28;20026;-43
2021/04/09 05:27:37;;;;;;;1.40;1.40;;;19.10;55.50;;;;;;5007004;28;20025;-42
2021/04/09 05:30:04;;;;;;;1.33;1.33;;;19.00;55.60;;;;;;5009383;28;20484;-40
2021/04/09 05:32:29;;;;;;;1.10;1.10;;;19.10;55.60;;;;;;5005601;28;20822;-43
2021/04/09 05:34:55;;;;;;;1.90;1.80;;;19.10;55.60;;;;;;5008648;28;20136;-40
2021/04/09 05:37:20;;;;;;;1.65;1.55;;;19.10;55.60;;;;;;5009462;28;20026;-40
2021/04/09 05:39:46;;;;;;;1.25;1.25;;;19.10;55.50;;;;;;5008235;28;20026;-39
2021/04/09 05:42:12;;;;;;;1.60;1.50;;;19.00;55.50;;;;;;5007166;28;20111;-42
2021/04/09 05:44:37;;;;;;;1.70;1.60;;;19.00;56.20;;;;;;5009077;28;20046;-38
2021/04/09 05:47:10;;;;;;;1.80;1.70;;;18.90;55.70;;;;;;5007050;28;20025;-41
2021/04/09 05:49:35;;;;;;;1.88;1.33;;;18.90;55.70;;;;;;5006999;28;20038;-44
2021/04/09 05:52:05;;;;;;;1.70;1.60;;;18.90;55.70;;;;;;5007893;28;20519;-39
2021/04/09 05:54:31;;;;;;;1.38;1.30;;;18.90;55.90;;;;;;5008973;28;20076;-40
2021/04/09 05:56:58;;;;;;;1.63;1.50;;;18.80;55.90;;;;;;4659359;28;10000409;-37
2021/04/09 05:59:24;;;;;;;1.95;1.45;;;18.80;56.40;;;;;;5005216;28;20805;-41
2021/04/09 06:01:49;;;;;;;3.67;1.63;;;18.90;56.10;;;;;;5005145;28;20030;-42
2021/04/09 06:04:16;;;;;;;3.85;1.50;;;18.90;56.10;;;;;;5006516;28;20030;-42
2021/04/09 06:06:44;;;;;;;1.45;1.35;;;18.80;56.10;;;;;;5006200;28;20120;-44
2021/04/09 06:09:09;;;;;;;1.45;1.35;;;18.90;57.00;;;;;;5006422;28;20113;-41
2021/04/09 06:11:35;;;;;;;1.63;1.52;;;18.90;56.30;;;;;;5006740;28;20627;-43
2021/04/09 06:14:00;;;;;;;1.50;1.40;;;18.90;56.30;;;;;;5007099;28;20128;-44
2021/04/09 06:16:26;;;;;;;1.63;1.40;;;18.80;56.40;;;;;;5009575;28;20496;-41
2021/04/09 06:18:52;;;;;;;1.50;1.40;;;18.80;56.60;;;;;;5010507;28;20179;-41
2021/04/09 06:21:17;;;;;;;1.70;1.60;;;18.80;56.40;;;;;;5010246;28;20033;-41
2021/04/09 06:23:43;;;;;;;2.30;1.70;;;18.90;56.30;;;;;;5011781;28;20048;-44
2021/04/09 06:26:09;;;;;;;1.90;1.50;;;18.90;56.20;;;;;;5011483;28;20439;-43
2021/04/09 06:28:34;;;;;;;1.67;1.48;;;18.90;55.90;;;;;;5012747;28;20044;-42
2021/04/09 06:31:00;;;;;;;1.70;1.33;;;18.80;55.90;;;;;;5013364;28;20631;-41
2021/04/09 06:33:26;;;;;;;1.67;1.38;;;18.90;56.20;;;;;;5010752;28;20061;-42
2021/04/09 06:35:51;;;;;;;3.30;1.73;;;18.90;56.00;;;;;;5009742;28;20436;-42
2021/04/09 06:38:17;;;;;;;1.40;1.30;;;18.80;56.90;;;;;;5011972;28;20105;-39
2021/04/09 06:40:42;;;;;;;1.85;1.67;;;18.90;56.50;;;;;;5013235;28;20018;-42
2021/04/09 06:43:08;;;;;;;1.60;1.50;;;18.90;55.80;;;;;;4994508;28;20042;-42
2021/04/09 06:45:34;;;;;;;1.95;1.50;;;18.90;55.80;;;;;;5009214;28;20033;-40
2021/04/09 06:47:59;;;;;;;1.65;1.30;;;18.90;55.80;;;;;;5010636;28;20049;-42
2021/04/09 06:50:25;;;;;;;1.60;1.50;;;18.90;55.80;;;;;;5009861;28;20025;-44
2021/04/09 06:52:50;;;;;;;1.70;1.60;;;18.90;55.80;;;;;;5004979;28;20403;-44
2021/04/09 06:55:20;;;;;;;1.25;1.25;;;18.90;55.60;;;;;;5009409;28;20033;-42
2021/04/09 06:57:46;;;;;;;1.60;1.50;;;18.90;55.70;;;;;;5010595;28;20037;-42
2021/04/09 07:00:15;;;;;;;2.35;1.52;;;19.00;55.80;;;;;;5006879;28;20038;-42
2021/04/09 07:02:41;;;;;;;1.55;1.45;;;19.00;55.30;;;;;;5000305;28;20038;-40
2021/04/09 07:05:07;;;;;;;1.23;1.20;;;19.00;55.30;;;;;;4999398;28;20100;-41
2021/04/09 07:07:33;;;;;;;1.50;1.40;;;19.00;55.20;;;;;;5000118;28;20456;-41
2021/04/09 07:09:58;;;;;;;1.50;1.40;;;19.00;55.20;;;;;;5000010;28;20052;-42
2021/04/09 07:12:29;;;;;;;1.65;1.55;;;19.00;55.20;;;;;;5000479;28;20046;-43
2021/04/09 07:14:59;;;;;;;1.40;1.30;;;19.10;55.10;;;;;;5002452;28;20049;-40
2021/04/09 07:17:28;;;;;;;1.33;1.23;;;19.10;55.40;;;;;;5001225;28;20030;-41
2021/04/09 07:20:14;;;;;;;2.05;1.60;;;19.10;55.00;;;;;;4995580;28;20053;-46
2021/04/09 07:22:40;;;;;;;1.30;1.20;;;19.20;54.80;;;;;;5002493;28;20537;-46
2021/04/09 07:25:13;;;;;;;3.42;1.17;;;19.20;54.80;;;;;;5009412;28;20050;-47
2021/04/09 07:27:39;;;;;;;1.30;1.20;;;19.30;54.70;;;;;;5007287;28;20091;-46
2021/04/09 07:30:06;;;;;;;1.50;1.40;;;19.30;54.50;;;;;;5007943;28;20504;-46
2021/04/09 07:32:32;;;;;;;1.20;1.20;;;19.20;54.70;;;;;;5007225;28;20041;-46
2021/04/09 07:34:59;;;;;;;1.40;1.30;;;19.20;54.80;;;;;;5004674;28;20440;-45
2021/04/09 07:37:28;;;;;;;1.40;1.30;;;19.20;54.90;;;;;;5011293;28;20034;-46
2021/04/09 07:40:04;;;;;;;1.70;1.60;;;19.20;54.90;;;;;;5007867;28;20125;-46
2021/04/09 07:42:36;;;;;;;1.48;1.38;;;19.10;54.90;;;;;;5005611;28;20420;-45
2021/04/09 07:45:09;;;;;;;1.52;1.42;;;19.20;54.80;;;;;;5004340;28;20050;-46
2021/04/09 07:47:34;;;;;;;2.92;1.73;;;19.20;54.60;;;;;;5004086;28;20049;-46
2021/04/09 07:50:01;;;;;;;3.80;1.40;;;19.30;54.50;;;;;;5005717;28;20133;-46
2021/04/09 07:52:36;;;;;;;1.50;1.40;;;19.30;54.30;;;;;;5009284;28;20072;-46
2021/04/09 07:55:13;;;;;;;1.52;1.42;;;19.40;54.30;;;;;;5008494;28;20064;-46
2021/04/09 07:57:38;;;;;;;1.63;1.52;;;19.30;54.40;;;;;;5005235;28;20049;-46
2021/04/09 08:00:16;;;;;;;1.40;1.30;;;19.30;54.60;;;;;;5007998;28;20512;-46
2021/04/09 08:02:42;;;;;;;1.75;1.65;;;19.20;54.60;;;;;;5002904;28;20053;-46
2021/04/09 08:05:08;;;;;;;1.90;1.67;;;19.20;54.70;;;;;;5004492;28;20046;-46
2021/04/09 08:07:34;;;;;;;1.45;1.35;;;19.30;54.70;;;;;;5006580;28;20076;-45
2021/04/09 08:10:00;;;;;;;1.60;1.50;;;19.20;54.70;;;;;;5007783;28;20191;-46
2021/04/09 08:12:26;;;;;;;1.83;1.70;;;19.30;54.80;;;;;;5005406;28;20539;-45
2021/04/09 08:14:53;;;;;;;1.60;1.50;;;19.40;54.40;;;;;;5006842;28;20045;-49
2021/04/09 08:17:20;;;;;;;1.55;1.45;;;19.40;54.30;;;;;;5005825;28;20073;-46
2021/04/09 08:19:46;;;;;;;1.90;1.30;;;19.40;54.30;;;;;;5006980;28;20069;-46
2021/04/09 08:22:12;;;;;;;2.30;1.35;;;19.50;54.00;;;;;;5004776;28;20520;-45
2021/04/09 08:24:37;;;;;;;3.60;1.60;;;19.60;54.10;;;;;;5005794;28;20060;-47
2021/04/09 08:27:03;;;;;;;1.50;1.38;;;19.50;54.30;;;;;;4989918;28;20512;-46
2021/04/09 08:29:30;;;;;;;2.17;1.88;;;19.50;54.20;;;;;;5006052;28;20054;-40
2021/04/09 08:31:55;;;;;;;1.45;1.35;;;19.60;54.00;;;;;;5007438;28;20068;-45
2021/04/09 08:34:21;;;;;;;1.50;1.40;;;19.60;54.10;;;;;;5018714;28;20504;-42
2021/04/09 08:36:51;;;;;;;2.00;1.45;;;19.50;54.20;;;;;;5006479;28;20081;-46
2021/04/09 08:39:17;;;;;;;1.50;1.40;;;19.50;54.20;;;;;;5006202;28;20042;-44
2021/04/09 08:41:44;;;;;;;3.42;1.48;;;19.60;54.10;;;;;;5006951;28;20066;-45
2021/04/09 08:44:11;;;;;;;1.35;1.25;;;19.70;53.90;;;;;;5006958;28;20191;-48
2021/04/09 08:46:37;;;;;;;1.60;1.40;;;19.80;53.60;;;;;;5005934;28;20054;-46
2021/04/09 08:49:06;;;;;;;1.55;1.45;;;19.90;53.60;;;;;;5036275;28;20125;-46
2021/04/09 08:51:31;;;;;;;2.75;1.80;;;19.90;53.40;;;;;;5020619;28;20046;-46
2021/04/09 08:54:21;;;;;;;1.48;1.38;;;19.80;54.10;;;;;;5020347;28;20459;-46
2021/04/09 08:56:47;;;;;;;3.25;1.42;;;19.80;53.70;;;;;;5005962;28;20057;-45
2021/04/09 08:59:12;;;;;;;1.90;1.80;;;19.70;54.20;;;;;;5007509;28;20099;-44
2021/04/09 09:01:38;;;;;;;3.67;2.03;;;19.70;55.20;;;;;;5006659;28;20137;-44
2021/04/09 09:04:22;;;;;;;1.83;1.73;;;19.60;56.30;;;;;;5006897;28;20042;-43
2021/04/09 09:06:49;;;;;;;2.13;1.92;;;19.50;54.80;;;;;;5004358;28;20568;-43
2021/04/09 09:09:31;;;;;;;2.70;2.00;;;19.50;54.70;;;;;;5005643;28;20133;-45
2021/04/09 09:12:00;;;;;;;2.80;1.83;;;19.50;55.40;;;;;;5005814;28;20463;-43
2021/04/09 09:14:43;;;;;;;1.75;1.65;;;19.50;55.50;;;;;;5005658;28;20057;-45
2021/04/09 09:17:20;;;;;;;3.25;1.80;;;19.50;54.90;;;;;;5004944;28;20121;-46
2021/04/09 09:19:49;;;;;;;2.20;2.10;;;19.50;54.90;;;;;;5005918;28;20068;-45
2021/04/09 09:22:20;;;;;;;4.60;2.20;;;19.50;54.30;;;;;;5006994;28;20037;-42
2021/04/09 09:25:04;;;;;;;2.60;1.92;;;19.50;54.30;;;;;;5004381;28;20053;-45
2021/04/09 09:27:49;;;;;;;1.88;1.67;;;19.50;54.60;;;;;;5005200;28;20060;-45
2021/04/09 09:30:35;;;;;;;2.00;1.80;;;19.50;54.60;;;;;;5004116;28;20534;-45
2021/04/09 09:33:26;;;;;;;2.30;1.98;;;19.50;55.00;;;;;;5015580;28;20500;-46
2021/04/09 09:35:56;;;;;;;3.00;1.70;;;19.60;55.30;;;;;;5004275;28;20475;-45
2021/04/09 09:38:50;;;;;;;2.75;2.00;;;19.50;55.10;;;;;;5005324;28;20092;-44
2021/04/09 09:41:34;;;;;;;3.45;2.00;;;19.60;54.60;;;;;;5008509;28;20050;-44
2021/04/09 09:44:00;;;;;;;3.33;1.92;;;19.50;55.60;;;;;;5009515;28;20049;-44
2021/04/09 09:46:54;;;;;;;2.80;1.90;;;19.50;55.80;;;;;;5010094;28;20041;-43
2021/04/09 09:49:23;;;;;;;1.48;1.38;;;19.50;55.20;;;;;;5010577;28;20116;-43
2021/04/09 09:51:49;;;;;;;1.75;1.60;;;19.50;54.90;;;;;;5009242;28;20137;-45
2021/04/09 09:54:28;;;;;;;1.88;1.77;;;19.60;55.30;;;;;;5009349;28;20132;-45
2021/04/09 09:56:54;;;;;;;1.98;1.50;;;19.60;55.20;;;;;;5009027;28;20049;-44
2021/04/09 09:59:26;;;;;;;1.73;1.60;;;19.60;54.70;;;;;;5006656;28;20115;-45
2021/04/09 10:01:52;;;;;;;4.00;1.50;;;19.80;54.50;;;;;;5007392;28;20046;-45
2021/04/09 10:04:18;;;;;;;2.70;1.42;;;19.70;54.90;;;;;;4660099;28;10000658;-44
2021/04/09 10:06:54;;;;;;;1.38;1.30;;;19.70;54.40;;;;;;5008508;28;20049;-42
2021/04/09 10:09:27;;;;;;;2.13;1.52;;;19.70;54.90;;;;;;5009527;28;20038;-45
2021/04/09 10:11:53;;;;;;;1.90;1.75;;;19.60;55.10;;;;;;5005085;28;20049;-44
2021/04/09 10:14:19;;;;;;;1.75;1.42;;;19.60;54.70;;;;;;5006120;28;20100;-47
2021/04/09 10:16:44;;;;;;;2.92;1.55;;;19.70;54.70;;;;;;5004641;28;20053;-45
2021/04/09 10:19:10;;;;;;;3.53;2.03;;;19.60;54.90;;;;;;5007111;28;20045;-46
2021/04/09 10:21:42;;;;;;;1.50;1.35;;;19.60;55.10;;;;;;5002257;28;20500;-45
2021/04/09 10:24:18;;;;;;;1.75;1.65;;;19.70;55.00;;;;;;5005632;28;20058;-46
2021/04/09 10:26:51;;;;;;;1.60;1.50;;;19.80;54.70;;;;;;5002565;28;20056;-43
2021/04/09 10:29:26;;;;;;;1.42;1.33;;;19.80;54.50;;;;;;5005690;28;20076;-44
2021/04/09 10:31:52;;;;;;;1.60;1.50;;;19.80;54.70;;;;;;5004849;28;20488;-47
2021/04/09 10:34:25;;;;;;;1.27;1.23;;;19.80;54.70;;;;;;5006716;28;20041;-42
2021/04/09 10:36:51;;;;;;;1.70;1.30;;;19.90;54.60;;;;;;5003426;28;20046;-41
2021/04/09 10:39:19;;;;;;;2.58;1.50;;;20.00;54.70;;;;;;5003354;28;20057;-43
2021/04/09 10:41:46;;;;;;;2.30;1.30;;;20.00;54.40;;;;;;5002640;28;20050;-45
2021/04/09 10:44:21;;;;;;;1.55;1.45;;;20.00;54.50;;;;;;5004339;28;20049;-47
2021/04/09 10:46:51;;;;;;;1.58;1.40;;;19.90;54.60;;;;;;5003419;28;20133;-47
2021/04/09 10:49:18;;;;;;;1.50;1.20;;;20.00;54.60;;;;;;5005528;28;20066;-43
2021/04/09 10:51:47;;;;;;;1.63;1.35;;;20.00;54.80;;;;;;5003307;28;20049;-43
2021/04/09 10:54:36;;;;;;;1.80;1.70;;;19.90;54.60;;;;;;5004216;28;20041;-47
2021/04/09 10:57:04;;;;;;;2.08;1.30;;;19.90;54.70;;;;;;5002927;28;20056;-43
2021/04/09 10:59:42;;;;;;;1.70;1.60;;;19.90;54.40;;;;;;5003462;28;20071;-47
2021/04/09 11:02:09;;;;;;;2.83;1.30;;;20.00;54.10;;;;;;5003251;28;20049;-47
2021/04/09 11:04:36;;;;;;;1.50;1.40;;;20.10;54.10;;;;;;5004173;28;20048;-48
2021/04/09 11:07:06;;;;;;;1.60;1.33;;;20.10;53.80;;;;;;5004339;28;20168;-44
2021/04/09 11:09:43;;;;;;;1.50;1.42;;;20.20;53.50;;;;;;5004937;28;20065;-46
2021/04/09 11:12:15;;;;;;;2.42;1.45;;;20.30;53.00;;;;;;5004561;28;20076;-46
2021/04/09 11:14:41;;;;;;;5.68;2.13;;;20.20;53.40;;;;;;5003277;28;20156;-45
2021/04/09 11:17:06;;;;;;;1.48;1.38;;;20.30;53.70;;;;;;5005002;28;20476;-42
2021/04/09 11:19:36;;;;;;;3.47;1.77;;;20.20;53.30;;;;;;5004665;28;20046;-44
2021/04/09 11:22:06;;;;;;;1.40;1.30;;;20.10;53.40;;;;;;5005381;28;20579;-42
2021/04/09 11:24:33;;;;;;;1.67;1.58;;;20.10;53.70;;;;;;5002353;28;20583;-45
2021/04/09 11:27:20;;;;;;;1.45;1.35;;;20.00;54.10;;;;;;5002256;28;20046;-44
2021/04/09 11:29:46;;;;;;;4.97;1.58;;;20.20;53.70;;;;;;5006506;28;20076;-42
2021/04/09 11:32:13;;;;;;;7.10;2.58;;;20.20;53.60;;;;;;5007004;28;20516;-42
2021/04/09 11:34:39;;;;;;;1.75;1.65;;;20.20;53.10;;;;;;5007598;28;20129;-44
2021/04/09 11:37:05;;;;;;;15.93;2.00;;;20.20;53.50;;;;;;5009260;28;20424;-44
2021/04/09 11:39:30;;;;;;;1.40;1.30;;;20.30;53.00;;;;;;5006311;28;20697;-45
2021/04/09 11:42:04;;;;;;;1.67;1.50;;;20.20;53.20;;;;;;5006442;28;20093;-45
2021/04/09 11:44:29;;;;;;;1.73;1.60;;;20.20;53.50;;;;;;5007218;28;20069;-45
2021/04/09 11:47:17;;;;;;;6.05;1.50;;;20.20;53.20;;;;;;5004451;28;20054;-44
2021/04/09 11:49:44;;;;;;;2.58;1.40;;;20.20;53.20;;;;;;5003201;28;20516;-44
2021/04/09 11:52:09;;;;;;;1.40;1.30;;;20.20;53.30;;;;;;5008205;28;20052;-43
2021/04/09 11:54:37;;;;;;;1.45;1.35;;;20.10;53.50;;;;;;5005085;28;20054;-43
2021/04/09 11:57:03;;;;;;;2.88;1.17;;;20.10;53.60;;;;;;5003047;28;20408;-44
2021/04/09 11:59:33;;;;;;;1.30;1.30;;;20.10;53.80;;;;;;5006070;28;20475;-46
2021/04/09 12:02:08;;;;;;;1.60;1.50;;;20.30;53.10;;;;;;5006261;28;20501;-42
2021/04/09 12:04:35;;;;;;;1.98;1.75;;;20.30;52.70;;;;;;5005963;28;20053;-44
2021/04/09 12:07:01;;;;;;;2.13;1.98;;;20.10;51.90;;;;;;5005767;28;20049;-43
2021/04/09 12:09:26;;;;;;;3.95;1.88;;;20.00;51.80;;;;;;5007028;28;20404;-47
2021/04/09 12:11:52;;;;;;;2.38;2.05;;;19.90;51.90;;;;;;5007160;28;20030;-45
2021/04/09 12:14:41;;;;;;;1.95;1.85;;;20.00;52.70;;;;;;5005752;28;20044;-44
2021/04/09 12:17:07;;;;;;;2.88;1.63;;;20.00;52.70;;;;;;5003750;28;20050;-44
2021/04/09 12:19:33;;;;;;;1.52;1.42;;;20.00;53.30;;;;;;5008654;28;20042;-47
2021/04/09 12:21:59;;;;;;;2.40;1.40;;;20.00;53.30;;;;;;5001554;28;20566;-42
2021/04/09 12:24:24;;;;;;;2.20;1.80;;;20.10;53.10;;;;;;5006102;28;20045;-43
2021/04/09 12:26:50;;;;;;;1.67;1.58;;;20.00;53.80;;;;;;5006077;28;20121;-45
2021/04/09 12:29:15;;;;;;;1.80;1.70;;;20.00;53.30;;;;;;5006800;28;20395;-48
2021/04/09 12:31:41;;;;;;;1.50;1.30;;;20.00;53.50;;;;;;5006808;28;20038;-45
2021/04/09 12:34:07;;;;;;;1.50;1.40;;;20.00;53.20;;;;;;5007621;28;20068;-45
2021/04/09 12:36:36;;;;;;;1.27;1.17;;;20.20;53.00;;;;;;5005731;28;20543;-45
2021/04/09 12:39:05;;;;;;;1.40;1.20;;;20.30;52.80;;;;;;5005013;28;20124;-45
2021/04/09 12:41:30;;;;;;;1.83;1.60;;;20.30;52.50;;;;;;5006046;28;20588;-46
2021/04/09 12:43:56;;;;;;;1.50;1.40;;;20.40;52.40;;;;;;5005314;28;20047;-45
2021/04/09 12:46:21;;;;;;;1.40;1.30;;;20.40;52.40;;;;;;5007707;28;20065;-45
2021/04/09 12:48:47;;;;;;;1.38;1.30;;;20.40;52.30;;;;;;5007261;28;20049;-43
2021/04/09 12:51:12;;;;;;;2.88;1.52;;;20.40;52.20;;;;;;5005663;28;20145;-45
2021/04/09 12:53:38;;;;;;;1.95;1.30;;;20.30;52.50;;;;;;5004782;28;20523;-43